Time;durP1;ratioP1;P1;durP2;ratioP2;P2;SDS_P1;SDS_P2;PMS_P1;PMS_P2;Temp;Humidity;BMP_temperature;BMP_pressure;BME280_temperature;BME280_humidity;BME280_pressure;Samples;Min_cycle;Max_cycle;Signal;HPM_P1;HPM_P2
2023/12/06 00:00:40;;;;;;;0.40;0.40;;;6.20;59.20;;;;;;20683;6794;117065;-66
2023/12/06 00:03:12;;;;;;;0.47;0.47;;;6.10;59.80;;;;;;20883;6764;117564;-67
2023/12/06 00:05:48;;;;;;;0.40;0.40;;;5.90;60.20;;;;;;20630;6769;307500;-66
2023/12/06 00:08:24;;;;;;;0.50;0.50;;;6.40;59.20;;;;;;20624;6769;336536;-66
2023/12/06 00:11:00;;;;;;;0.70;0.70;;;6.50;59.20;;;;;;20744;6769;117508;-66
2023/12/06 00:13:36;;;;;;;0.60;0.60;;;6.50;59.10;;;;;;20581;6771;305338;-67
2023/12/06 00:16:11;;;;;;;0.63;0.63;;;6.50;58.90;;;;;;20818;6770;122381;-66
2023/12/06 00:18:48;;;;;;;0.50;0.50;;;6.50;59.10;;;;;;20649;6753;326733;-67
2023/12/06 00:21:22;;;;;;;0.70;0.70;;;6.50;59.00;;;;;;20524;6753;330442;-66
2023/12/06 00:23:58;;;;;;;0.60;0.60;;;6.80;58.70;;;;;;20829;6768;117833;-66
2023/12/06 00:26:34;;;;;;;0.60;0.60;;;6.70;58.70;;;;;;20877;6753;117547;-66
2023/12/06 00:29:10;;;;;;;0.70;0.70;;;6.20;60.00;;;;;;20874;6753;117407;-66
2023/12/06 00:31:46;;;;;;;0.70;0.70;;;6.00;60.50;;;;;;20734;6753;117405;-66
2023/12/06 00:34:22;;;;;;;0.90;0.75;;;6.00;60.50;;;;;;20614;6768;336412;-66
2023/12/06 00:36:58;;;;;;;1.10;0.60;;;6.10;60.60;;;;;;20669;6751;299373;-66
2023/12/06 00:39:33;;;;;;;0.70;0.70;;;6.40;60.10;;;;;;20632;6751;291161;-66
2023/12/06 00:42:10;;;;;;;0.83;0.70;;;6.60;59.30;;;;;;20561;6751;117468;-66
2023/12/06 00:44:45;;;;;;;0.60;0.60;;;6.60;59.30;;;;;;20821;6766;119362;-66
2023/12/06 00:47:21;;;;;;;0.60;0.60;;;6.40;60.00;;;;;;20487;6765;119342;-67
2023/12/06 00:49:56;;;;;;;0.70;0.70;;;6.10;60.60;;;;;;20550;6780;339499;-66
2023/12/06 00:52:32;;;;;;;0.82;0.80;;;6.20;60.80;;;;;;20581;6780;308221;-66
2023/12/06 00:55:08;;;;;;;0.55;0.55;;;6.50;60.30;;;;;;20626;6765;337208;-66
2023/12/06 00:57:43;;;;;;;0.77;0.77;;;6.70;59.80;;;;;;20494;6780;314219;-66
2023/12/06 01:00:22;;;;;;;0.90;0.70;;;6.90;59.20;;;;;;20548;6780;309427;-66
2023/12/06 01:02:59;;;;;;;0.57;0.57;;;6.90;58.90;;;;;;20751;6797;119586;-66
2023/12/06 01:05:37;;;;;;;0.67;0.67;;;6.90;59.00;;;;;;20805;6765;117846;-66
2023/12/06 01:08:10;;;;;;;0.60;0.60;;;6.50;59.70;;;;;;20571;6780;308366;-66
2023/12/06 01:10:47;;;;;;;0.77;0.77;;;6.50;60.10;;;;;;20729;6780;118520;-66
2023/12/06 01:13:21;;;;;;;0.60;0.60;;;6.50;60.30;;;;;;20931;6751;119766;-66
2023/12/06 01:15:59;;;;;;;0.70;0.70;;;6.30;60.80;;;;;;20966;6751;67331;-65
2023/12/06 01:18:33;;;;;;;0.70;0.70;;;6.00;61.20;;;;;;20897;6765;112843;-66
2023/12/06 01:21:09;;;;;;;0.50;0.50;;;6.00;62.10;;;;;;20250;6780;343744;-66
2023/12/06 01:23:44;;;;;;;0.70;0.70;;;6.00;62.00;;;;;;20560;6830;277852;-66
2023/12/06 01:26:20;;;;;;;0.60;0.60;;;6.60;60.60;;;;;;20581;6781;309642;-66
2023/12/06 01:28:56;;;;;;;0.60;0.60;;;6.60;60.60;;;;;;20829;6766;116946;-66
2023/12/06 01:31:32;;;;;;;0.70;0.70;;;6.50;60.30;;;;;;20669;6780;120437;-66
2023/12/06 01:34:07;;;;;;;0.67;0.67;;;6.30;60.90;;;;;;20835;6766;122292;-66
2023/12/06 01:36:43;;;;;;;0.70;0.70;;;6.10;61.50;;;;;;20608;6766;281432;-66
2023/12/06 01:39:18;;;;;;;0.80;0.80;;;6.20;61.70;;;;;;20603;6766;304930;-67
2023/12/06 01:41:54;;;;;;;0.57;0.57;;;6.50;61.00;;;;;;20432;6780;341518;-66
2023/12/06 01:44:30;;;;;;;0.50;0.50;;;6.60;60.20;;;;;;20797;6781;117574;-66
2023/12/06 01:47:06;;;;;;;0.70;0.70;;;6.60;60.20;;;;;;20913;6751;117520;-66
2023/12/06 01:49:42;;;;;;;0.70;0.57;;;6.30;60.70;;;;;;20592;6766;307209;-66
2023/12/06 01:52:17;;;;;;;0.50;0.50;;;6.40;60.90;;;;;;20490;6756;337513;-66
2023/12/06 01:54:58;;;;;;;0.50;0.50;;;6.60;60.30;;;;;;20888;6751;117708;-66
2023/12/06 01:57:28;;;;;;;0.70;0.70;;;6.50;60.20;;;;;;20796;6767;117858;-66
2023/12/06 02:00:07;;;;;;;0.50;0.50;;;6.30;60.80;;;;;;20854;6765;67936;-67
2023/12/06 02:02:40;;;;;;;0.80;0.60;;;6.00;61.50;;;;;;20627;6765;307730;-66
2023/12/06 02:05:16;;;;;;;1.15;0.60;;;6.20;61.60;;;;;;20591;6765;299330;-66
2023/12/06 02:07:51;;;;;;;0.40;0.40;;;6.50;60.80;;;;;;20822;6638;138370;-76
2023/12/06 02:10:27;;;;;;;0.67;0.67;;;6.40;60.70;;;;;;20831;6769;120528;-75
2023/12/06 02:13:05;;;;;;;0.40;0.40;;;6.00;61.80;;;;;;20889;6755;118497;-75
2023/12/06 02:15:41;;;;;;;0.50;0.50;;;5.90;61.70;;;;;;20605;6769;307114;-76
2023/12/06 02:18:16;;;;;;;0.30;0.30;;;6.10;61.80;;;;;;20630;6761;306745;-75
2023/12/06 02:20:53;;;;;;;0.47;0.47;;;6.40;60.70;;;;;;20823;6758;117079;-76
2023/12/06 02:23:31;;;;;;;0.33;0.33;;;6.40;60.70;;;;;;20903;6743;118413;-75
2023/12/06 02:26:07;;;;;;;0.40;0.40;;;6.30;61.40;;;;;;20602;6776;306868;-76
2023/12/06 02:28:43;;;;;;;0.47;0.47;;;6.20;61.10;;;;;;20607;6775;280500;-76
2023/12/06 02:31:19;;;;;;;0.40;0.40;;;6.50;60.30;;;;;;20319;6863;311805;-76
2023/12/06 02:33:54;;;;;;;0.50;0.50;;;6.80;59.60;;;;;;20610;6773;306702;-75
2023/12/06 02:36:30;;;;;;;0.40;0.40;;;6.90;58.90;;;;;;20565;6787;307864;-75
2023/12/06 02:39:05;;;;;;;0.50;0.50;;;7.10;58.30;;;;;;20580;6779;307219;-75
2023/12/06 02:41:41;;;;;;;0.40;0.40;;;7.20;58.00;;;;;;20610;6770;305600;-75
2023/12/06 02:44:18;;;;;;;0.40;0.40;;;7.20;57.70;;;;;;20559;6787;306985;-75
2023/12/06 02:46:54;;;;;;;0.50;0.50;;;7.30;57.40;;;;;;20617;6770;279178;-75
2023/12/06 02:49:30;;;;;;;0.40;0.37;;;7.10;58.30;;;;;;20749;6770;117961;-75
2023/12/06 02:52:06;;;;;;;1.12;0.40;;;7.00;58.00;;;;;;20493;6782;339857;-75
2023/12/06 02:54:43;;;;;;;0.40;0.40;;;6.80;59.00;;;;;;20861;6761;118223;-75
2023/12/06 02:57:18;;;;;;;0.30;0.30;;;6.80;58.30;;;;;;20633;6759;328445;-76
2023/12/06 02:59:55;;;;;;;0.52;0.52;;;6.80;58.60;;;;;;20554;6775;309130;-75
2023/12/06 03:02:31;;;;;;;0.40;0.40;;;7.00;58.20;;;;;;20628;6835;117390;-76
2023/12/06 03:05:10;;;;;;;0.20;0.20;;;6.80;58.30;;;;;;20632;6764;336176;-75
2023/12/06 03:07:44;;;;;;;0.40;0.40;;;6.90;58.00;;;;;;20591;6772;336300;-75
2023/12/06 03:10:20;;;;;;;0.30;0.30;;;6.90;58.00;;;;;;20818;6778;117361;-76
2023/12/06 03:12:55;;;;;;;0.50;0.50;;;6.80;58.20;;;;;;20696;6763;312884;-75
2023/12/06 03:15:31;;;;;;;0.40;0.40;;;6.80;58.40;;;;;;20848;6763;117093;-75
2023/12/06 03:18:06;;;;;;;0.40;0.40;;;6.60;58.60;;;;;;20661;6754;320237;-75
2023/12/06 03:20:43;;;;;;;0.50;0.50;;;6.50;58.80;;;;;;20766;6755;117193;-75
2023/12/06 03:23:19;;;;;;;0.30;0.30;;;6.60;58.90;;;;;;20691;6743;306627;-75
2023/12/06 03:25:55;;;;;;;0.30;0.30;;;6.60;58.90;;;;;;20927;6743;117430;-75
2023/12/06 03:28:30;;;;;;;0.32;0.32;;;6.50;59.00;;;;;;20731;6740;305420;-75
2023/12/06 03:31:06;;;;;;;0.60;0.60;;;6.50;59.00;;;;;;20577;6770;337942;-76
2023/12/06 03:33:41;;;;;;;0.73;0.33;;;6.70;58.60;;;;;;20817;6771;117041;-76
2023/12/06 03:36:17;;;;;;;0.30;0.30;;;6.60;58.70;;;;;;20612;6771;307738;-76
2023/12/06 03:38:53;;;;;;;0.30;0.30;;;6.70;58.70;;;;;;20603;6772;279242;-77
2023/12/06 03:41:29;;;;;;;0.25;0.25;;;6.80;58.20;;;;;;20486;6766;334060;-75
2023/12/06 03:44:05;;;;;;;0.40;0.40;;;7.00;57.70;;;;;;20882;6757;117126;-75
2023/12/06 03:46:41;;;;;;;0.30;0.30;;;6.50;58.70;;;;;;20879;6757;117827;-75
2023/12/06 03:49:17;;;;;;;0.30;0.30;;;6.50;58.70;;;;;;20863;6749;116920;-75
2023/12/06 03:51:52;;;;;;;0.20;0.20;;;6.20;59.50;;;;;;20939;6740;117017;-75
2023/12/06 03:54:28;;;;;;;0.30;0.30;;;6.00;60.10;;;;;;20911;6747;116958;-75
2023/12/06 03:57:04;;;;;;;0.23;0.23;;;5.70;61.30;;;;;;20871;6757;116842;-75
2023/12/06 03:59:40;;;;;;;0.40;0.40;;;5.70;61.10;;;;;;20793;6761;119522;-75
2023/12/06 04:02:17;;;;;;;0.27;0.27;;;5.60;61.50;;;;;;20967;6733;120320;-75
2023/12/06 04:04:52;;;;;;;0.40;0.40;;;5.50;61.90;;;;;;20906;6750;116873;-75
2023/12/06 04:07:27;;;;;;;0.40;0.40;;;5.40;62.20;;;;;;20928;6757;117910;-77
2023/12/06 04:10:03;;;;;;;0.40;0.40;;;5.60;62.30;;;;;;20748;6732;317567;-75
2023/12/06 04:12:42;;;;;;;0.40;0.40;;;5.60;62.30;;;;;;20966;6732;116660;-75
2023/12/06 04:15:15;;;;;;;1.80;0.53;;;5.70;61.90;;;;;;20906;6747;118434;-73
2023/12/06 04:17:50;;;;;;;0.40;0.40;;;5.60;62.10;;;;;;20649;6764;336486;-72
2023/12/06 04:20:27;;;;;;;0.30;0.30;;;5.80;61.50;;;;;;20830;6736;118156;-73
2023/12/06 04:23:02;;;;;;;0.33;0.33;;;5.80;62.10;;;;;;20940;6757;116967;-72
2023/12/06 04:25:38;;;;;;;0.80;0.50;;;5.70;61.70;;;;;;20642;6757;336085;-72
2023/12/06 04:28:13;;;;;;;0.85;0.50;;;5.90;61.60;;;;;;20719;6741;335689;-73
2023/12/06 04:30:50;;;;;;;0.60;0.60;;;6.10;60.40;;;;;;20772;6747;118133;-72
2023/12/06 04:33:25;;;;;;;0.40;0.40;;;6.20;60.50;;;;;;20731;6732;306117;-72
2023/12/06 04:36:02;;;;;;;0.60;0.60;;;6.20;60.90;;;;;;20899;6750;117390;-72
2023/12/06 04:38:37;;;;;;;1.10;0.60;;;6.20;60.30;;;;;;20694;6746;306062;-73
2023/12/06 04:41:16;;;;;;;1.23;0.60;;;6.30;60.20;;;;;;20640;6828;118515;-74
2023/12/06 04:43:48;;;;;;;0.40;0.40;;;6.20;60.20;;;;;;20706;6747;307236;-72
2023/12/06 04:46:24;;;;;;;0.50;0.50;;;6.30;60.20;;;;;;20718;6746;333103;-73
2023/12/06 04:49:00;;;;;;;0.60;0.60;;;6.50;59.60;;;;;;20810;6778;116938;-72
2023/12/06 04:51:35;;;;;;;0.43;0.43;;;6.40;59.60;;;;;;20834;6766;120435;-73
2023/12/06 04:54:11;;;;;;;0.53;0.53;;;6.20;60.30;;;;;;20588;6784;316972;-72
2023/12/06 04:56:50;;;;;;;1.53;0.50;;;6.20;60.30;;;;;;20810;6778;118242;-72
2023/12/06 04:59:23;;;;;;;0.40;0.40;;;6.10;60.40;;;;;;20731;6784;120065;-73
2023/12/06 05:01:58;;;;;;;0.55;0.55;;;5.90;60.90;;;;;;20704;6751;306542;-72
2023/12/06 05:04:34;;;;;;;0.50;0.50;;;6.10;61.00;;;;;;20915;6751;116827;-72
2023/12/06 05:07:09;;;;;;;0.60;0.60;;;6.00;60.90;;;;;;20697;6751;335086;-72
2023/12/06 05:09:45;;;;;;;0.67;0.67;;;6.10;60.70;;;;;;20806;6751;117222;-73
2023/12/06 05:12:21;;;;;;;0.60;0.60;;;6.10;60.60;;;;;;20703;6751;287857;-73
2023/12/06 05:14:56;;;;;;;0.70;0.70;;;6.20;60.60;;;;;;20723;6751;277193;-73
2023/12/06 05:17:33;;;;;;;0.80;0.80;;;6.40;60.10;;;;;;20947;6751;121002;-73
2023/12/06 05:20:10;;;;;;;0.50;0.50;;;6.40;60.10;;;;;;20776;6755;118365;-74
2023/12/06 05:22:44;;;;;;;1.67;0.70;;;6.10;60.60;;;;;;20880;6757;117056;-73
2023/12/06 05:25:19;;;;;;;0.67;0.67;;;5.90;61.30;;;;;;20625;6761;307397;-73
2023/12/06 05:27:55;;;;;;;0.60;0.60;;;6.00;61.50;;;;;;20702;6747;336619;-76
2023/12/06 05:30:31;;;;;;;1.67;0.60;;;6.30;60.80;;;;;;20758;6757;116487;-79
2023/12/06 05:33:07;;;;;;;0.90;0.60;;;6.30;60.60;;;;;;20695;6746;336311;-74
2023/12/06 05:35:42;;;;;;;0.50;0.50;;;6.30;60.50;;;;;;20870;6761;117267;-73
2023/12/06 05:38:17;;;;;;;1.20;0.70;;;6.30;60.60;;;;;;20654;6761;284172;-73
2023/12/06 05:40:53;;;;;;;0.70;0.70;;;6.30;60.60;;;;;;20504;6761;338410;-75
2023/12/06 05:43:29;;;;;;;1.23;0.50;;;6.50;60.10;;;;;;20888;6746;117566;-76
